Milford, Kansas
Current Conditions -  °F | °C
As of 2:58 AM on Sunday 26 Oct 2014 (Local Time) from KFRI Reporting Station
Clear Clear  
Wind Chill: 60°   Ceiling: Unl
Heat Index: 60°   Visibility: 10mi
Dew Point: 60°   Wind: 3mph
Humidity: 100%   Direction: 40°NE
Pressure: 29.9"   Gusts: NA
Location:  39.17°N, 96.91°W
Report Text: KFRI 260758Z AUTO 04003KT 10SM CLR 16/16 A2990 RMK AO2 SLP115 T01550155
Loading
Personal Weather Stations






























Interactive Weather Map
Tropical Storm Tracking
New forecast layout! Learn more

10-Day Weather Forecast

Advertisements
Track Severe Weather on mobile